首页
METAR-TAF:

METAR-TAF

机场 :

杰克逊, 密西西比州, 美国

纬度: 32-19-11N, 经度: 090-04-39W, 海拔: 105米

当前天气观测

该预报发布于1小时和1分钟前的19:54 UTC
风速8节,风向北转西北
温度 18°C
湿度 24%
气压 1030 hPa
能見度: 16.1公里
散云层高于25000英尺

METAR: KJAN 071954Z 33008KT 10SM SCT250 18/M03 A3042 RMK AO2 SLP300 T01781028

时间: 14:55 (20:55 UTC)

预报

该预报发布于3小时和35分钟前的17:20 UTC
预报有效从07日的 18点(UTC)到 08日的 18点(UTC)
风速6节,风向东转东北,有时为16节阵风
能見度: 10公里
天空无云
从 08日的 0300点(UTC)
风速5节,风向多变
能見度: 10公里
天空无云

TAF: KJAN 071720Z 0718/0818 06006G16KT P6SM SKC FM080300 VRB05KT P6SM SKC

超过4000个机场的气象观测和天气预报(METAR&TAF报告)。

可查询的气象台以黄色和红色小点在地图上表示。

将鼠标移到小点上方,可查看气象台名称。

然后点击查看天气观测和预报。

如需切换地图:点击带黑十字的绿色按钮放大地图;点击带横线的绿色按钮缩小地图;或者点击绿色箭头查看邻近地区的地图。


METAR-TAF: